createdAt,value
2019-04-05T00:04:53.422Z,82.70
2019-04-05T00:14:58.723Z,83.00
2019-04-05T00:25:04.223Z,83.80
2019-04-05T00:35:09.508Z,83.60
2019-04-05T00:45:27.124Z,83.80
2019-04-05T00:55:21.884Z,83.70
2019-04-05T01:05:27.266Z,83.50
2019-04-05T01:15:40.701Z,84.90
2019-04-05T01:25:40.312Z,84.80
2019-04-05T01:35:45.544Z,84.30
2019-04-05T01:45:53.860Z,84.60
2019-04-05T01:55:57.825Z,84.60
2019-04-05T02:06:03.246Z,84.40
2019-04-05T02:16:08.627Z,84.20
2019-04-05T02:26:13.842Z,83.90
2019-04-05T02:36:19.130Z,84.10
2019-04-05T02:46:26.220Z,84.10
2019-04-05T02:56:32.151Z,84.30
2019-04-05T03:06:37.791Z,84.90
2019-04-05T03:16:46.313Z,85.30
2019-04-05T03:27:02.536Z,86.00
2019-04-05T03:37:08.211Z,86.20
2019-04-05T03:47:13.610Z,86.10
2019-04-05T03:57:19.091Z,86.30
2019-04-05T04:07:24.467Z,86.20
2019-04-05T04:17:29.728Z,86.40
2019-04-05T04:27:35.152Z,86.40
2019-04-05T04:37:40.656Z,85.70
2019-04-05T04:47:46.544Z,84.70
2019-04-05T04:57:51.922Z,79.80
2019-04-05T05:07:57.839Z,75.40
2019-04-05T05:18:03.291Z,72.10
2019-04-05T05:28:08.783Z,68.80
2019-04-05T05:38:14.521Z,66.70
2019-04-05T05:48:20.389Z,63.10
2019-04-05T05:58:26.434Z,61.40
2019-04-05T06:08:31.843Z,60.60
2019-04-05T06:18:37.170Z,59.50
2019-04-05T06:28:42.690Z,58.00
2019-04-05T06:38:48.138Z,57.30
2019-04-05T06:48:53.529Z,56.30
2019-04-05T06:58:58.942Z,55.70
2019-04-05T07:09:06.190Z,55.80
2019-04-05T07:19:11.509Z,57.00
2019-04-05T07:29:16.844Z,56.80
2019-04-05T07:39:22.232Z,55.90
2019-04-05T07:49:27.528Z,56.10
2019-04-05T07:59:32.873Z,56.50
2019-04-05T08:09:38.910Z,57.40
2019-04-05T08:19:44.578Z,58.60
2019-04-05T08:29:50.148Z,58.30
2019-04-05T08:39:55.542Z,58.10
2019-04-05T08:50:00.896Z,57.90
2019-04-05T09:00:06.735Z,58.00
2019-04-05T09:10:12.047Z,58.60
2019-04-05T09:20:17.446Z,59.30
2019-04-05T09:30:22.934Z,60.00
2019-04-05T09:40:28.796Z,61.00
2019-04-05T09:50:34.218Z,61.50
2019-04-05T10:00:39.935Z,62.10
2019-04-05T10:10:45.283Z,62.30
2019-04-05T10:20:50.711Z,62.50
2019-04-05T10:30:56.184Z,63.10
2019-04-05T10:41:01.555Z,63.50
2019-04-05T10:51:06.995Z,63.70
2019-04-05T11:01:12.417Z,64.10
2019-04-05T11:11:17.977Z,64.30
2019-04-05T11:21:23.397Z,63.60
2019-04-05T11:31:29.035Z,63.50
2019-04-05T11:41:35.393Z,63.30
2019-04-05T11:51:43.224Z,63.60
2019-04-05T12:02:14.752Z,62.60
2019-04-05T12:12:20.603Z,62.90
2019-04-05T12:22:27.585Z,62.90
2019-04-05T12:32:38.361Z,61.90
2019-04-05T12:42:42.646Z,62.30
2019-04-05T12:52:47.209Z,62.60
2019-04-05T13:02:52.496Z,62.30
2019-04-05T13:12:58.131Z,61.80
2019-04-05T13:23:06.484Z,61.60
2019-04-05T13:33:10.467Z,61.60
2019-04-05T13:43:17.811Z,61.40
2019-04-05T13:53:23.495Z,61.60
2019-04-05T14:03:29.144Z,61.30
2019-04-05T14:13:34.554Z,60.90
2019-04-05T14:23:40.028Z,61.20
2019-04-05T14:33:45.496Z,61.70
2019-04-05T14:43:51.151Z,62.20
2019-04-05T14:53:56.566Z,61.70
2019-04-05T15:04:02.050Z,62.00
2019-04-05T15:14:07.563Z,62.40
2019-04-05T15:24:15.992Z,62.70
2019-04-05T15:34:20.360Z,63.40
2019-04-05T15:44:25.882Z,63.60
2019-04-05T15:54:33.161Z,64.10
2019-04-05T16:04:38.536Z,63.60
2019-04-05T16:14:44.046Z,64.00
2019-04-05T16:24:50.927Z,64.60
2019-04-05T16:34:56.593Z,65.00
2019-04-05T16:45:02.001Z,66.20
2019-04-05T16:55:07.762Z,67.50
2019-04-05T17:05:16.365Z,68.50
2019-04-05T17:15:21.795Z,69.60
2019-04-05T17:25:27.750Z,70.20
2019-04-05T17:35:33.259Z,71.10
2019-04-05T17:45:38.595Z,71.80
2019-04-05T17:55:43.988Z,72.20
2019-04-05T18:05:49.359Z,73.10
2019-04-05T18:15:54.825Z,73.70
2019-04-05T18:26:00.343Z,74.60
2019-04-05T18:36:05.768Z,75.60
2019-04-05T18:46:11.090Z,76.50
2019-04-05T18:56:16.523Z,77.70
2019-04-05T19:06:21.823Z,78.60
2019-04-05T19:16:27.276Z,79.40
2019-04-05T19:26:32.881Z,80.30
2019-04-05T19:56:52.592Z,83.70
2019-04-05T20:06:58.902Z,84.90
2019-04-05T20:17:05.875Z,85.70
2019-04-05T20:27:11.246Z,86.30
2019-04-05T20:37:16.534Z,86.50
2019-04-05T20:47:23.034Z,86.40
2019-04-05T20:57:28.402Z,85.60
2019-04-05T21:07:33.874Z,84.90
2019-04-05T21:17:39.299Z,84.60
2019-04-05T21:27:44.731Z,84.30
2019-04-05T21:37:50.280Z,84.20
2019-04-05T21:47:55.614Z,84.70
2019-04-05T21:58:01.060Z,84.90
2019-04-05T22:08:06.370Z,84.90
2019-04-05T22:18:11.884Z,85.50
2019-04-05T22:28:17.173Z,85.70
2019-04-05T22:38:22.931Z,86.20
2019-04-05T22:48:28.330Z,86.30
2019-04-05T22:58:33.650Z,86.20
2019-04-05T23:08:38.967Z,86.30
2019-04-05T23:18:44.328Z,86.90
2019-04-05T23:28:49.747Z,88.10
2019-04-05T23:38:55.046Z,88.30
2019-04-05T23:49:00.421Z,88.90
2019-04-05T23:59:05.813Z,89.30
